createdAt,value
2022-09-16T00:02:23.898Z,53.06
2022-09-16T00:04:54.981Z,53.26
2022-09-16T00:07:23.688Z,53.19
2022-09-16T00:09:52.348Z,52.80
2022-09-16T00:12:23.310Z,53.16
2022-09-16T00:14:53.895Z,53.15
2022-09-16T00:17:23.578Z,53.06
2022-09-16T00:19:52.334Z,53.21
2022-09-16T00:22:21.201Z,53.19
2022-09-16T00:24:51.163Z,53.25
2022-09-16T00:27:20.111Z,52.96
2022-09-16T00:29:50.817Z,52.84
2022-09-16T00:32:19.538Z,52.86
2022-09-16T00:34:48.588Z,53.02
2022-09-16T00:37:17.920Z,52.88
2022-09-16T00:39:49.562Z,53.15
2022-09-16T00:42:18.743Z,53.08
2022-09-16T00:44:58.831Z,52.52
2022-09-16T00:47:33.423Z,52.67
2022-09-16T00:50:08.576Z,53.11
2022-09-16T00:52:38.134Z,53.09
2022-09-16T00:55:10.656Z,53.04
2022-09-16T00:57:42.196Z,52.94
2022-09-16T01:00:14.305Z,52.84
2022-09-16T01:02:44.818Z,52.93
2022-09-16T01:05:17.352Z,52.88
2022-09-16T01:07:49.481Z,53.04
2022-09-16T01:10:21.478Z,52.71
2022-09-16T01:12:53.250Z,52.79
2022-09-16T01:15:26.245Z,53.02
2022-09-16T01:18:05.757Z,53.06
2022-09-16T01:21:19.457Z,52.60
2022-09-16T01:24:34.009Z,52.30
2022-09-16T01:27:45.255Z,52.60
2022-09-16T01:30:29.237Z,52.51
2022-09-16T01:33:05.762Z,52.60
2022-09-16T01:35:48.421Z,52.40
2022-09-16T01:38:28.450Z,52.96
2022-09-16T01:41:05.085Z,52.82
2022-09-16T01:43:44.578Z,52.41
2022-09-16T01:46:21.730Z,52.70
2022-09-16T01:48:59.506Z,52.78
2022-09-16T01:51:32.803Z,52.97
2022-09-16T01:54:08.806Z,52.84
2022-09-16T01:56:45.223Z,52.84
2022-09-16T01:59:21.027Z,52.83
2022-09-16T02:01:55.425Z,52.81
2022-09-16T02:04:30.744Z,52.95
2022-09-16T02:07:02.785Z,52.85
2022-09-16T02:09:35.243Z,52.84
2022-09-16T02:12:08.788Z,52.84
2022-09-16T02:14:42.813Z,52.52
2022-09-16T02:17:13.609Z,52.85
2022-09-16T02:19:48.573Z,52.37
2022-09-16T02:22:20.245Z,52.79
2022-09-16T02:24:50.229Z,52.74
2022-09-16T02:27:22.435Z,52.66
2022-09-16T02:29:54.905Z,52.50
2022-09-16T02:32:28.052Z,52.67
2022-09-16T02:35:00.124Z,52.46
2022-09-16T02:37:32.147Z,52.73
2022-09-16T02:40:06.398Z,52.39
2022-09-16T02:42:36.012Z,52.31
2022-09-16T02:45:05.901Z,52.66
2022-09-16T02:47:44.781Z,52.71
2022-09-16T02:50:19.500Z,52.55
2022-09-16T02:52:58.708Z,52.68
2022-09-16T02:55:38.240Z,52.19
2022-09-16T02:58:07.433Z,52.36
2022-09-16T03:00:43.511Z,52.71
2022-09-16T03:03:12.484Z,52.42
2022-09-16T03:06:08.631Z,52.43
2022-09-16T03:08:39.164Z,52.45
2022-09-16T03:11:15.249Z,52.68
2022-09-16T03:13:55.360Z,52.37
2022-09-16T03:16:30.936Z,52.26
2022-09-16T03:19:12.417Z,52.13
2022-09-16T03:21:50.057Z,52.42
2022-09-16T03:24:29.735Z,52.51
2022-09-16T03:27:03.769Z,52.48
2022-09-16T03:29:38.566Z,52.30
2022-09-16T03:32:18.515Z,52.34
2022-09-16T03:34:50.982Z,52.50
2022-09-16T03:37:23.873Z,52.52
2022-09-16T03:39:55.576Z,52.68
2022-09-16T03:42:24.863Z,52.53
2022-09-16T03:44:53.893Z,52.21
2022-09-16T03:47:22.837Z,52.12
2022-09-16T03:49:51.931Z,52.54
2022-09-16T03:52:22.632Z,52.50
2022-09-16T03:54:51.318Z,52.18
2022-09-16T03:57:20.128Z,52.37
2022-09-16T03:59:49.231Z,52.49
2022-09-16T04:02:18.311Z,52.41
2022-09-16T04:04:47.356Z,52.20
2022-09-16T04:07:16.931Z,52.08
2022-09-16T04:09:47.409Z,52.19
2022-09-16T04:12:16.574Z,52.19
2022-09-16T04:14:45.234Z,52.40
2022-09-16T04:17:14.839Z,52.02
2022-09-16T04:19:43.831Z,52.17
2022-09-16T04:22:12.881Z,52.05
2022-09-16T04:24:42.123Z,52.33
2022-09-16T04:27:12.928Z,52.10
2022-09-16T04:29:42.101Z,52.37
2022-09-16T04:32:10.803Z,52.46
2022-09-16T04:34:39.877Z,52.45
2022-09-16T04:37:08.845Z,52.18
2022-09-16T04:39:37.881Z,52.06
2022-09-16T04:42:07.566Z,52.22
2022-09-16T04:44:38.503Z,52.34
2022-09-16T04:47:07.214Z,52.24
2022-09-16T04:49:36.270Z,52.09
2022-09-16T04:52:05.288Z,52.19
2022-09-16T04:54:34.427Z,52.10
2022-09-16T04:57:03.605Z,52.51
2022-09-16T04:59:32.845Z,52.14
2022-09-16T05:02:03.642Z,52.30
2022-09-16T05:04:32.853Z,52.22
2022-09-16T05:07:01.745Z,52.07
2022-09-16T05:09:30.827Z,52.20
2022-09-16T05:11:59.932Z,52.30
2022-09-16T05:14:29.543Z,52.30
2022-09-16T05:16:58.688Z,52.46
2022-09-16T05:19:30.053Z,52.40
2022-09-16T05:21:58.867Z,52.04
2022-09-16T05:24:27.861Z,52.51
2022-09-16T05:26:56.857Z,52.41
2022-09-16T05:29:26.313Z,52.18
2022-09-16T05:31:56.065Z,52.45
2022-09-16T05:34:28.924Z,52.17
2022-09-16T05:37:00.687Z,52.23
2022-09-16T05:39:29.962Z,52.22
2022-09-16T05:42:01.128Z,52.09
2022-09-16T05:44:31.495Z,52.34
2022-09-16T05:47:00.737Z,52.40
2022-09-16T05:49:29.521Z,51.98
2022-09-16T05:52:00.617Z,52.09
2022-09-16T05:54:29.676Z,51.92
2022-09-16T05:57:01.269Z,52.05
2022-09-16T05:59:33.407Z,52.28
2022-09-16T06:02:02.472Z,52.24
2022-09-16T06:04:31.444Z,52.03
2022-09-16T06:07:02.639Z,52.11
2022-09-16T06:09:31.740Z,52.25
2022-09-16T06:12:02.257Z,51.98
2022-09-16T06:14:31.632Z,51.96
2022-09-16T06:17:00.859Z,51.90
2022-09-16T06:19:30.316Z,52.09
2022-09-16T06:21:58.859Z,52.14
2022-09-16T06:24:30.102Z,51.69
2022-09-16T06:26:59.385Z,52.04
2022-09-16T06:29:28.693Z,51.72
2022-09-16T06:31:57.824Z,51.83
2022-09-16T06:34:27.386Z,51.63
2022-09-16T06:36:56.484Z,51.78
2022-09-16T06:39:25.601Z,51.65
2022-09-16T06:41:56.192Z,51.87
2022-09-16T06:44:25.190Z,51.72
2022-09-16T06:46:56.771Z,51.59
2022-09-16T06:49:25.517Z,52.06
2022-09-16T06:51:58.038Z,51.96
2022-09-16T06:54:27.394Z,51.97
2022-09-16T06:56:59.807Z,51.83
2022-09-16T06:59:29.187Z,51.71
2022-09-16T07:01:59.894Z,51.55
2022-09-16T07:04:29.400Z,51.58
2022-09-16T07:07:15.282Z,51.71
2022-09-16T07:09:43.956Z,51.67
2022-09-16T07:12:19.384Z,51.86
2022-09-16T07:14:49.042Z,51.62
2022-09-16T07:17:18.391Z,51.56
2022-09-16T07:19:47.998Z,51.49
2022-09-16T07:22:16.862Z,51.77
2022-09-16T07:24:46.490Z,51.41
2022-09-16T07:27:17.741Z,51.86
2022-09-16T07:29:46.909Z,51.52
2022-09-16T07:32:16.155Z,51.79
2022-09-16T07:34:46.222Z,51.71
2022-09-16T07:37:15.484Z,51.49
2022-09-16T07:39:44.902Z,51.59
2022-09-16T07:42:14.020Z,51.77
2022-09-16T07:44:45.032Z,51.29
2022-09-16T07:47:13.631Z,51.51
2022-09-16T07:49:42.939Z,51.81
2022-09-16T07:52:11.743Z,51.39
2022-09-16T07:54:40.830Z,51.70
2022-09-16T07:57:09.402Z,51.54
2022-09-16T07:59:38.508Z,51.32
2022-09-16T08:02:09.273Z,51.34
2022-09-16T08:04:42.627Z,51.54
2022-09-16T08:07:11.778Z,51.24
2022-09-16T08:09:48.567Z,51.65
2022-09-16T08:12:22.818Z,51.62
2022-09-16T08:14:51.929Z,51.50
2022-09-16T08:17:30.706Z,51.50
2022-09-16T08:20:07.649Z,51.42
2022-09-16T08:22:36.698Z,51.40
2022-09-16T08:25:09.240Z,51.60
2022-09-16T08:27:38.910Z,51.62
2022-09-16T08:30:11.311Z,51.46
2022-09-16T08:32:42.018Z,51.55
2022-09-16T08:35:11.212Z,51.22
2022-09-16T08:37:40.311Z,51.21
2022-09-16T08:40:12.791Z,51.41
2022-09-16T08:42:58.307Z,51.05
2022-09-16T08:45:32.916Z,51.24
2022-09-16T08:48:28.659Z,51.15
2022-09-16T08:51:00.829Z,51.60
2022-09-16T08:53:37.767Z,51.11
2022-09-16T08:56:09.670Z,51.26
2022-09-16T08:58:43.847Z,51.26
2022-09-16T09:01:21.073Z,51.33
2022-09-16T09:03:51.917Z,51.19
2022-09-16T09:06:38.512Z,51.05
2022-09-16T09:09:44.631Z,51.11
2022-09-16T09:12:26.627Z,51.27
2022-09-16T09:15:07.420Z,51.26
2022-09-16T09:17:50.782Z,51.29
2022-09-16T09:20:32.902Z,51.06
2022-09-16T09:23:15.948Z,51.30
2022-09-16T09:25:51.762Z,51.22
2022-09-16T09:28:42.214Z,50.88
2022-09-16T09:31:21.633Z,51.22
2022-09-16T09:33:58.859Z,51.11
2022-09-16T09:36:38.966Z,51.10
2022-09-16T09:39:33.009Z,51.08
2022-09-16T09:42:07.766Z,51.48
2022-09-16T09:44:49.170Z,51.08
2022-09-16T09:47:23.895Z,51.39
2022-09-16T09:49:55.947Z,51.47
2022-09-16T09:52:34.364Z,50.98
2022-09-16T09:55:16.347Z,51.42
2022-09-16T09:58:05.501Z,51.12
2022-09-16T10:00:34.672Z,51.39
2022-09-16T10:03:07.216Z,51.40
2022-09-16T10:05:36.331Z,51.23
2022-09-16T10:08:16.697Z,51.03
2022-09-16T10:10:52.989Z,51.19
2022-09-16T10:13:23.842Z,51.49
2022-09-16T10:15:56.124Z,51.25
2022-09-16T10:18:30.254Z,51.29
2022-09-16T10:21:04.770Z,51.27
2022-09-16T10:23:35.883Z,51.36
2022-09-16T10:26:16.919Z,51.26
2022-09-16T10:29:00.009Z,51.17
2022-09-16T10:31:34.385Z,51.35
2022-09-16T10:34:06.106Z,51.30
2022-09-16T10:36:36.861Z,51.49
2022-09-16T10:39:07.814Z,51.27
2022-09-16T10:41:46.415Z,51.46
2022-09-16T10:44:18.969Z,51.48
2022-09-16T10:46:59.975Z,51.01
2022-09-16T10:49:40.637Z,51.28
2022-09-16T10:52:19.642Z,50.98
2022-09-16T10:54:51.223Z,51.27
2022-09-16T10:57:32.239Z,51.19
2022-09-16T11:00:04.975Z,51.40
2022-09-16T11:03:15.239Z,51.08
2022-09-16T11:05:54.688Z,51.20
2022-09-16T11:08:44.309Z,51.22
2022-09-16T11:11:25.151Z,51.40
2022-09-16T11:14:03.042Z,51.27
2022-09-16T11:16:54.967Z,50.93
2022-09-16T11:19:35.902Z,51.10
2022-09-16T11:22:14.225Z,51.54
2022-09-16T11:25:02.285Z,51.41
2022-09-16T11:27:45.717Z,51.33
2022-09-16T11:30:16.904Z,51.22
2022-09-16T11:33:08.281Z,51.34
2022-09-16T11:36:04.173Z,50.96
2022-09-16T11:38:43.993Z,51.03
2022-09-16T11:41:27.050Z,51.33
2022-09-16T11:44:12.338Z,51.06
2022-09-16T11:47:00.278Z,51.32
2022-09-16T11:49:48.960Z,51.50
2022-09-16T11:52:35.001Z,51.10
2022-09-16T11:55:30.095Z,51.08
2022-09-16T11:58:02.519Z,51.25
2022-09-16T12:00:35.653Z,51.16
2022-09-16T12:03:13.479Z,51.19
2022-09-16T12:05:50.463Z,51.27
2022-09-16T12:08:24.939Z,51.65
2022-09-16T12:10:59.714Z,51.69
2022-09-16T12:13:32.025Z,51.21
2022-09-16T12:16:07.250Z,51.25
2022-09-16T12:18:43.467Z,51.28
2022-09-16T12:21:19.991Z,51.52
2022-09-16T12:23:55.024Z,51.28
2022-09-16T12:26:28.588Z,51.23
2022-09-16T12:29:04.150Z,51.17
2022-09-16T12:31:39.879Z,51.17
2022-09-16T12:34:14.401Z,51.43
2022-09-16T12:36:49.390Z,51.39
2022-09-16T12:39:18.525Z,51.49
2022-09-16T12:42:03.766Z,51.38
2022-09-16T12:45:10.185Z,51.08
2022-09-16T12:48:08.093Z,51.13
2022-09-16T12:50:55.301Z,51.47
2022-09-16T12:54:03.428Z,51.54
2022-09-16T12:56:46.464Z,51.11
2022-09-16T12:59:51.576Z,51.34
2022-09-16T13:02:23.272Z,51.39
2022-09-16T13:04:57.640Z,51.56
2022-09-16T13:07:28.842Z,51.52
2022-09-16T13:10:06.443Z,51.29
2022-09-16T13:12:41.333Z,51.64
2022-09-16T13:15:26.590Z,51.42
2022-09-16T13:17:56.131Z,51.33
2022-09-16T13:20:32.957Z,51.31
2022-09-16T13:23:09.317Z,51.29
2022-09-16T13:25:50.932Z,51.41
2022-09-16T13:28:28.908Z,51.30
2022-09-16T13:30:57.550Z,51.42
2022-09-16T13:33:30.002Z,51.60
2022-09-16T13:36:33.073Z,51.41
2022-09-16T13:39:03.818Z,51.53
2022-09-16T13:41:36.340Z,51.63
2022-09-16T13:44:27.915Z,51.42
2022-09-16T13:46:56.535Z,51.59
2022-09-16T13:49:28.094Z,51.72
2022-09-16T13:51:58.676Z,51.41
2022-09-16T13:54:30.750Z,51.56
2022-09-16T13:57:20.825Z,51.47
2022-09-16T14:00:09.843Z,51.34
2022-09-16T14:03:09.621Z,51.20
2022-09-16T14:05:52.427Z,51.47
2022-09-16T14:08:32.572Z,51.35
2022-09-16T14:11:16.783Z,51.67
2022-09-16T14:13:48.845Z,51.45
2022-09-16T14:16:21.460Z,51.51
2022-09-16T14:19:00.797Z,51.31
2022-09-16T14:21:29.848Z,51.72
2022-09-16T14:24:09.641Z,51.30
2022-09-16T14:26:38.059Z,51.52
2022-09-16T14:29:07.387Z,51.71
2022-09-16T14:31:39.933Z,51.44
2022-09-16T14:34:11.503Z,51.75
2022-09-16T14:36:43.569Z,51.66
2022-09-16T14:39:23.248Z,51.32
2022-09-16T14:42:10.179Z,51.74
2022-09-16T14:44:46.255Z,51.42
2022-09-16T14:47:52.308Z,51.45
2022-09-16T14:50:26.129Z,51.69
2022-09-16T14:53:06.820Z,51.32
2022-09-16T14:55:42.117Z,51.24
2022-09-16T14:58:19.010Z,51.67
2022-09-16T15:04:00.364Z,51.66
2022-09-16T15:06:39.728Z,51.47
2022-09-16T15:09:21.997Z,51.31
2022-09-16T15:15:01.958Z,51.65
2022-09-16T15:17:31.783Z,51.63
2022-09-16T15:20:05.445Z,51.71
2022-09-16T15:22:37.349Z,51.30
2022-09-16T15:25:07.693Z,51.63
2022-09-16T15:27:44.644Z,51.34
2022-09-16T15:30:25.625Z,51.52
2022-09-16T15:33:09.660Z,51.70
2022-09-16T15:35:47.561Z,51.71
2022-09-16T15:38:28.382Z,51.29
2022-09-16T15:41:09.384Z,51.30
2022-09-16T15:43:45.568Z,51.45
2022-09-16T15:46:23.845Z,51.55
2022-09-16T15:48:59.614Z,51.30
2022-09-16T15:51:36.817Z,51.52
2022-09-16T15:54:27.306Z,51.70
2022-09-16T15:57:05.076Z,51.36
2022-09-16T15:59:44.994Z,51.50
2022-09-16T16:02:41.661Z,51.48
2022-09-16T16:05:19.376Z,51.26
2022-09-16T16:07:57.772Z,51.39
2022-09-16T16:10:32.350Z,51.50
2022-09-16T16:13:07.945Z,51.73
2022-09-16T16:18:47.317Z,51.57
2022-09-16T16:24:05.279Z,51.46
2022-09-16T16:26:56.866Z,51.30
2022-09-16T16:29:37.377Z,51.51
2022-09-16T16:32:40.944Z,51.04
2022-09-16T16:38:01.077Z,51.58
2022-09-16T16:43:20.879Z,51.56
2022-09-16T16:45:56.019Z,51.57
2022-09-16T16:48:25.011Z,51.21
2022-09-16T16:51:00.078Z,51.52
2022-09-16T16:53:30.148Z,51.48
2022-09-16T16:56:05.106Z,51.44
2022-09-16T16:58:36.349Z,51.43
2022-09-16T17:01:13.235Z,51.30
2022-09-16T17:03:42.697Z,51.69
2022-09-16T17:06:13.044Z,51.40
2022-09-16T17:08:42.117Z,51.61
2022-09-16T17:11:12.216Z,51.29
2022-09-16T17:13:43.061Z,51.38
2022-09-16T17:16:13.894Z,51.28
2022-09-16T17:18:44.241Z,51.56
2022-09-16T17:21:16.496Z,51.49
2022-09-16T17:23:45.427Z,51.31
2022-09-16T17:26:15.139Z,51.42
2022-09-16T17:28:47.185Z,51.38
2022-09-16T17:31:17.840Z,51.22
2022-09-16T17:33:46.707Z,51.27
2022-09-16T17:36:19.993Z,51.56
2022-09-16T17:38:49.587Z,51.14
2022-09-16T17:41:19.124Z,51.34
2022-09-16T17:43:49.817Z,51.48
2022-09-16T17:46:20.706Z,51.55
2022-09-16T17:48:49.276Z,51.33
2022-09-16T17:51:19.925Z,51.41
2022-09-16T17:53:48.649Z,51.52
2022-09-16T17:56:19.600Z,51.23
2022-09-16T17:59:07.152Z,51.36
2022-09-16T18:01:37.269Z,51.52
2022-09-16T18:04:14.430Z,51.57
2022-09-16T18:06:51.833Z,51.32
2022-09-16T18:09:28.947Z,51.19
2022-09-16T18:12:03.998Z,51.49
2022-09-16T18:14:35.094Z,51.31
2022-09-16T18:17:06.924Z,51.40
2022-09-16T18:19:37.779Z,51.35
2022-09-16T18:22:15.038Z,51.22
2022-09-16T18:24:52.130Z,51.37
2022-09-16T18:30:21.434Z,51.52
2022-09-16T18:32:53.191Z,51.28
2022-09-16T18:38:21.490Z,51.15
2022-09-16T18:41:08.433Z,51.33
2022-09-16T18:43:40.049Z,51.45
2022-09-16T18:46:26.865Z,51.17
2022-09-16T18:49:03.997Z,51.43
2022-09-16T18:51:43.497Z,51.29
2022-09-16T18:54:46.868Z,51.19
2022-09-16T18:57:18.712Z,51.52
2022-09-16T19:02:43.712Z,51.59
2022-09-16T19:05:20.017Z,51.42
2022-09-16T19:07:51.986Z,51.57
2022-09-16T19:10:27.102Z,51.09
2022-09-16T19:12:58.913Z,51.35
2022-09-16T19:15:29.471Z,51.42
2022-09-16T19:18:02.079Z,51.36
2022-09-16T19:20:33.124Z,51.10
2022-09-16T19:23:02.926Z,51.25
2022-09-16T19:25:35.978Z,51.26
2022-09-16T19:28:06.617Z,51.40
2022-09-16T19:30:36.779Z,51.43
2022-09-16T19:33:09.630Z,51.46
2022-09-16T19:35:48.064Z,51.13
2022-09-16T19:38:17.664Z,51.59
2022-09-16T19:43:40.848Z,51.14
2022-09-16T19:46:16.471Z,51.03
2022-09-16T19:48:52.433Z,51.28
2022-09-16T19:51:26.167Z,51.01
2022-09-16T19:53:57.299Z,51.27
2022-09-16T19:56:48.143Z,51.27
2022-09-16T19:59:29.848Z,51.27
2022-09-16T20:02:15.765Z,51.21
2022-09-16T20:04:46.792Z,51.04
2022-09-16T20:07:21.639Z,51.30
2022-09-16T20:09:52.702Z,51.32
2022-09-16T20:12:25.732Z,51.37
2022-09-16T20:15:04.908Z,50.97
2022-09-16T20:17:49.459Z,51.00
2022-09-16T20:20:24.168Z,50.93
2022-09-16T20:22:56.026Z,51.07
2022-09-16T20:25:28.105Z,51.31
2022-09-16T20:28:00.484Z,50.87
2022-09-16T20:30:34.149Z,51.14
2022-09-16T20:33:06.729Z,51.01
2022-09-16T20:35:39.336Z,50.93
2022-09-16T20:38:12.199Z,51.11
2022-09-16T20:40:49.077Z,50.97
2022-09-16T20:43:59.920Z,50.88
2022-09-16T20:46:51.953Z,51.14
2022-09-16T20:49:25.055Z,51.34
2022-09-16T20:52:00.727Z,51.30
2022-09-16T20:54:31.514Z,51.35
2022-09-16T20:57:16.147Z,51.25
2022-09-16T20:59:47.889Z,51.06
2022-09-16T21:02:30.240Z,50.86
2022-09-16T21:05:05.201Z,50.75
2022-09-16T21:07:36.022Z,51.23
2022-09-16T21:10:07.999Z,51.05
2022-09-16T21:12:37.603Z,50.75
2022-09-16T21:15:14.121Z,51.09
2022-09-16T21:17:52.190Z,51.03
2022-09-16T21:20:31.472Z,50.75
2022-09-16T21:23:03.220Z,50.71
2022-09-16T21:25:43.498Z,51.07
2022-09-16T21:28:17.515Z,50.76
2022-09-16T21:30:49.582Z,50.84
2022-09-16T21:36:14.044Z,51.08
2022-09-16T21:39:00.459Z,50.60
2022-09-16T21:41:34.756Z,50.95
2022-09-16T21:44:18.692Z,50.89
2022-09-16T21:49:36.703Z,50.57
2022-09-16T21:54:50.877Z,50.64
2022-09-16T21:57:22.856Z,50.79
2022-09-16T22:02:45.604Z,50.79
2022-09-16T22:05:13.714Z,50.57
2022-09-16T22:07:41.790Z,50.90
2022-09-16T22:10:10.474Z,50.84
2022-09-16T22:12:38.574Z,50.80
2022-09-16T22:15:07.756Z,50.64
2022-09-16T22:17:35.871Z,50.80
2022-09-16T22:20:08.091Z,50.49
2022-09-16T22:22:36.689Z,50.63
2022-09-16T22:25:05.282Z,50.92
2022-09-16T22:27:33.462Z,50.50
2022-09-16T22:30:01.839Z,50.87
2022-09-16T22:32:29.952Z,50.49
2022-09-16T22:34:58.078Z,50.64
2022-09-16T22:37:27.591Z,50.78
2022-09-16T22:39:55.796Z,50.78
2022-09-16T22:42:23.980Z,50.50
2022-09-16T22:44:52.205Z,50.70
2022-09-16T22:47:20.265Z,50.72
2022-09-16T22:49:48.340Z,50.63
2022-09-16T22:52:16.522Z,50.52
2022-09-16T22:54:46.058Z,50.47
2022-09-16T22:57:14.163Z,50.19
2022-09-16T22:59:42.306Z,50.60
2022-09-16T23:02:10.692Z,50.68
2022-09-16T23:04:38.811Z,50.45
2022-09-16T23:07:10.322Z,50.68
2022-09-16T23:09:38.467Z,50.25
2022-09-16T23:12:08.398Z,50.35
2022-09-16T23:14:37.112Z,50.39
2022-09-16T23:17:05.517Z,50.14
2022-09-16T23:19:33.911Z,50.43
2022-09-16T23:22:02.003Z,50.19
2022-09-16T23:24:30.085Z,50.12
2022-09-16T23:26:58.171Z,50.33
2022-09-16T23:29:27.702Z,50.28
2022-09-16T23:31:57.341Z,50.13
2022-09-16T23:34:25.553Z,50.01
2022-09-16T23:36:53.700Z,50.05
2022-09-16T23:39:21.850Z,50.16
2022-09-16T23:41:51.402Z,50.32
2022-09-16T23:44:19.799Z,50.00
2022-09-16T23:46:49.375Z,50.27
2022-09-16T23:49:20.363Z,49.96
2022-09-16T23:51:49.303Z,50.14
2022-09-16T23:54:17.649Z,50.40
2022-09-16T23:56:47.107Z,50.08
2022-09-16T23:59:15.189Z,50.13
